Gulf-ii — TCA2452 — position and weather

sailwx.info

Track history (hours):
 
Tides and Currents Weather Stations Pressure Air Temp Water Temp Dewpoint Dewpoint Depression Visibility Wind Speed Wind Dir Waves Ship Positions

Gulf-ii

Last reported at 2014-Nov-23 18:31 UTC. Time now 2014-Nov-23 18:56 UTC.
Position N 40°51' E 029°17'.

Length 24 m; draft 3.7 m.

Type: Tug. MMSI: 271002438.

Date/timePositionNaut miles runAvg speedWind from/ knotsBaromVisibWave heightAir tempDewpointWater temp
2014-Nov-23 18:31N 40°51' E 029°17'0 0.0
2014-Nov-23 17:31N 40°51' E 029°17'0 0.0
2014-Nov-23 16:19N 40°51' E 029°17'0 0.0
2014-Nov-23 15:13N 40°51' E 029°17'0 0.0
2014-Nov-23 14:31N 40°51' E 029°17'0 0.0
2014-Nov-23 13:25N 40°51' E 029°17'0 0.0
2014-Nov-23 12:25N 40°51' E 029°17'0 0.0
2014-Nov-23 11:31N 40°51' E 029°17'0 0.0
2014-Nov-23 10:31N 40°51' E 029°17'0 0.0
2014-Nov-23 09:25N 40°51' E 029°17'0 0.0
2014-Nov-23 08:13N 40°51' E 029°17'0 0.0
2014-Nov-23 07:31N 40°51' E 029°17'0 0.0
2014-Nov-23 06:31N 40°51' E 029°17'0 0.0
2014-Nov-23 05:25N 40°51' E 029°17'0 0.0
2014-Nov-23 04:31N 40°51' E 029°17'0 0.0
2014-Nov-23 03:31N 40°51' E 029°17'0 0.0
2014-Nov-23 02:31N 40°51' E 029°17'0 0.0
2014-Nov-23 01:25N 40°51' E 029°17'0 0.0
2014-Nov-23 00:19N 40°51' E 029°17'0 0.0
2014-Nov-22 23:25N 40°51' E 029°17'0 0.0
2014-Nov-22 22:31N 40°51' E 029°17'0 0.0
2014-Nov-22 21:25N 40°51' E 029°17'0 0.0
2014-Nov-22 20:31N 40°51' E 029°17'0 0.0
2014-Nov-22 19:19N 40°51' E 029°17'0 0.0
2014-Nov-22 18:31N 40°51' E 029°17'2 2.3
2014-Nov-22 17:33N 40°49' E 029°15'7 7.5
2014-Nov-22 16:33N 40°45' E 029°23'5 4.5
2014-Nov-22 15:27N 40°44' E 029°29'4 4.1
2014-Nov-22 14:33N 40°44' E 029°24'4 4.1
2014-Nov-22 13:33N 40°45' E 029°19'4 4.3
2014-Nov-22 12:33N 40°47' E 029°14'3 3.2
2014-Nov-22 11:34N 40°51' E 029°13'0 0.1
2014-Nov-22 10:33N 40°51' E 029°14'0 0.2
2014-Nov-22 09:33N 40°51' E 029°14'3 2.8
2014-Nov-22 08:33N 40°51' E 029°17'0 0.0
2014-Nov-22 07:33N 40°51' E 029°17'0 0.0
2014-Nov-22 06:25N 40°51' E 029°17'0 0.0
2014-Nov-22 05:31N 40°51' E 029°17'0 0.0
2014-Nov-22 04:31N 40°51' E 029°17'0 0.0
2014-Nov-22 03:31N 40°51' E 029°17'0 0.0
2014-Nov-22 02:31N 40°51' E 029°17'0 0.0
2014-Nov-22 01:31N 40°51' E 029°17'0 0.0
2014-Nov-22 00:25N 40°51' E 029°17'0 0.0
2014-Nov-21 23:31N 40°51' E 029°17'0 0.0
2014-Nov-21 22:31N 40°51' E 029°17'0 0.0
2014-Nov-21 21:19N 40°51' E 029°17'0 0.0
2014-Nov-21 20:19N 40°51' E 029°17'0 0.0
2014-Nov-21 19:31N 40°51' E 029°17'0 0.0
2014-Nov-21 18:31N 40°51' E 029°17'0 0.0
2014-Nov-21 17:31N 40°51' E 029°17'0 0.0
2014-Nov-21 16:31N 40°51' E 029°17'0 0.0
2014-Nov-21 15:25N 40°51' E 029°17'0 0.0
2014-Nov-21 14:33N 40°51' E 029°17'0 0.0
2014-Nov-21 13:33N 40°51' E 029°17'0 0.0
2014-Nov-21 12:33N 40°51' E 029°17'0 0.0
2014-Nov-21 11:33N 40°51' E 029°17'0 0.0
2014-Nov-21 10:33N 40°51' E 029°17'0 0.0
2014-Nov-21 09:33N 40°51' E 029°17'  
Track history (hours):
 
Tides and Currents Weather Stations Pressure Air Temp Water Temp Dewpoint Dewpoint Depression Visibility Wind Speed Wind Dir Waves Ship Positions

Gulf-ii

Last reported at 2014-Nov-23 18:31 UTC. Time now 2014-Nov-23 18:56 UTC.
Position N 40°51' E 029°17'.

Length 24 m; draft 3.7 m.

Type: Tug. MMSI: 271002438.

Date/timePositionNaut miles runAvg speedWind from/ knotsBaromVisibWave heightAir tempDewpointWater temp
2014-Nov-23 18:31N 40°51' E 029°17'0 0.0
2014-Nov-23 17:31N 40°51' E 029°17'0 0.0
2014-Nov-23 16:19N 40°51' E 029°17'0 0.0
2014-Nov-23 15:13N 40°51' E 029°17'0 0.0
2014-Nov-23 14:31N 40°51' E 029°17'0 0.0
2014-Nov-23 13:25N 40°51' E 029°17'0 0.0
2014-Nov-23 12:25N 40°51' E 029°17'0 0.0
2014-Nov-23 11:31N 40°51' E 029°17'0 0.0
2014-Nov-23 10:31N 40°51' E 029°17'0 0.0
2014-Nov-23 09:25N 40°51' E 029°17'0 0.0
2014-Nov-23 08:13N 40°51' E 029°17'0 0.0
2014-Nov-23 07:31N 40°51' E 029°17'0 0.0
2014-Nov-23 06:31N 40°51' E 029°17'0 0.0
2014-Nov-23 05:25N 40°51' E 029°17'0 0.0
2014-Nov-23 04:31N 40°51' E 029°17'0 0.0
2014-Nov-23 03:31N 40°51' E 029°17'0 0.0
2014-Nov-23 02:31N 40°51' E 029°17'0 0.0
2014-Nov-23 01:25N 40°51' E 029°17'0 0.0
2014-Nov-23 00:19N 40°51' E 029°17'0 0.0
2014-Nov-22 23:25N 40°51' E 029°17'0 0.0
2014-Nov-22 22:31N 40°51' E 029°17'0 0.0
2014-Nov-22 21:25N 40°51' E 029°17'0 0.0
2014-Nov-22 20:31N 40°51' E 029°17'0 0.0
2014-Nov-22 19:19N 40°51' E 029°17'0 0.0
2014-Nov-22 18:31N 40°51' E 029°17'2 2.3
2014-Nov-22 17:33N 40°49' E 029°15'7 7.5
2014-Nov-22 16:33N 40°45' E 029°23'5 4.5
2014-Nov-22 15:27N 40°44' E 029°29'4 4.1
2014-Nov-22 14:33N 40°44' E 029°24'4 4.1
2014-Nov-22 13:33N 40°45' E 029°19'4 4.3
2014-Nov-22 12:33N 40°47' E 029°14'3 3.2
2014-Nov-22 11:34N 40°51' E 029°13'0 0.1
2014-Nov-22 10:33N 40°51' E 029°14'0 0.2
2014-Nov-22 09:33N 40°51' E 029°14'3 2.8
2014-Nov-22 08:33N 40°51' E 029°17'0 0.0
2014-Nov-22 07:33N 40°51' E 029°17'0 0.0
2014-Nov-22 06:25N 40°51' E 029°17'0 0.0
2014-Nov-22 05:31N 40°51' E 029°17'0 0.0
2014-Nov-22 04:31N 40°51' E 029°17'0 0.0
2014-Nov-22 03:31N 40°51' E 029°17'0 0.0
2014-Nov-22 02:31N 40°51' E 029°17'0 0.0
2014-Nov-22 01:31N 40°51' E 029°17'0 0.0
2014-Nov-22 00:25N 40°51' E 029°17'0 0.0
2014-Nov-21 23:31N 40°51' E 029°17'0 0.0
2014-Nov-21 22:31N 40°51' E 029°17'0 0.0
2014-Nov-21 21:19N 40°51' E 029°17'0 0.0
2014-Nov-21 20:19N 40°51' E 029°17'0 0.0
2014-Nov-21 19:31N 40°51' E 029°17'0 0.0
2014-Nov-21 18:31N 40°51' E 029°17'0 0.0
2014-Nov-21 17:31N 40°51' E 029°17'0 0.0
2014-Nov-21 16:31N 40°51' E 029°17'0 0.0
2014-Nov-21 15:25N 40°51' E 029°17'0 0.0
2014-Nov-21 14:33N 40°51' E 029°17'0 0.0
2014-Nov-21 13:33N 40°51' E 029°17'0 0.0
2014-Nov-21 12:33N 40°51' E 029°17'0 0.0
2014-Nov-21 11:33N 40°51' E 029°17'0 0.0
2014-Nov-21 10:33N 40°51' E 029°17'0 0.0
2014-Nov-21 09:33N 40°51' E 029°17'  

Dump ship's entire track history